sensor_id;sensor_type;location;lat;lon;timestamp;temperature;humidity
25170;DHT22;13129;48.012;10.352;2023-12-14T04:31:55;4.40;99.90
25170;DHT22;13129;48.012;10.352;2023-12-14T04:34:20;4.30;99.90
25170;DHT22;13129;48.012;10.352;2023-12-14T04:36:46;4.30;99.90
25170;DHT22;13129;48.012;10.352;2023-12-14T04:39:12;4.20;99.90
25170;DHT22;13129;48.012;10.352;2023-12-14T04:41:37;4.20;99.90
25170;DHT22;13129;48.012;10.352;2023-12-14T04:44:03;4.10;99.90
25170;DHT22;13129;48.012;10.352;2023-12-14T04:46:29;4.10;99.90
25170;DHT22;13129;48.012;10.352;2023-12-14T04:48:55;4.20;99.90
25170;DHT22;13129;48.012;10.352;2023-12-14T04:51:21;4.20;99.90
25170;DHT22;13129;48.012;10.352;2023-12-14T04:53:47;4.20;99.90
25170;DHT22;13129;48.012;10.352;2023-12-14T04:56:12;4.20;99.90
25170;DHT22;13129;48.012;10.352;2023-12-14T04:58:41;4.30;99.90
25170;DHT22;13129;48.012;10.352;2023-12-14T05:01:07;4.30;99.90
25170;DHT22;13129;48.012;10.352;2023-12-14T05:03:36;4.30;99.90
25170;DHT22;13129;48.012;10.352;2023-12-14T05:06:02;4.30;99.90
25170;DHT22;13129;48.012;10.352;2023-12-14T05:08:28;4.30;99.90
25170;DHT22;13129;48.012;10.352;2023-12-14T05:10:53;4.30;99.90
25170;DHT22;13129;48.012;10.352;2023-12-14T05:13:19;4.30;99.90
25170;DHT22;13129;48.012;10.352;2023-12-14T05:15:45;4.30;99.90
25170;DHT22;13129;48.012;10.352;2023-12-14T05:18:10;4.30;99.90
25170;DHT22;13129;48.012;10.352;2023-12-14T05:20:36;4.30;99.90
25170;DHT22;13129;48.012;10.352;2023-12-14T05:23:02;4.30;99.90
25170;DHT22;13129;48.012;10.352;2023-12-14T05:25:28;4.30;99.90
25170;DHT22;13129;48.012;10.352;2023-12-14T05:27:53;4.30;99.90
25170;DHT22;13129;48.012;10.352;2023-12-14T05:30:19;4.40;99.90
25170;DHT22;13129;48.012;10.352;2023-12-14T05:32:45;4.30;99.90
25170;DHT22;13129;48.012;10.352;2023-12-14T05:35:12;4.30;99.90
25170;DHT22;13129;48.012;10.352;2023-12-14T05:37:41;4.30;99.90
25170;DHT22;13129;48.012;10.352;2023-12-14T05:40:09;4.40;99.90
25170;DHT22;13129;48.012;10.352;2023-12-14T05:42:35;4.40;99.90
25170;DHT22;13129;48.012;10.352;2023-12-14T05:45:01;4.40;99.90
25170;DHT22;13129;48.012;10.352;2023-12-14T05:47:27;4.40;99.90
25170;DHT22;13129;48.012;10.352;2023-12-14T05:49:52;4.40;99.90
25170;DHT22;13129;48.012;10.352;2023-12-14T05:52:18;4.40;99.90
25170;DHT22;13129;48.012;10.352;2023-12-14T05:54:44;4.40;99.90
25170;DHT22;13129;48.012;10.352;2023-12-14T05:57:09;4.40;99.90
25170;DHT22;13129;48.012;10.352;2023-12-14T05:59:38;4.50;99.90
25170;DHT22;13129;48.012;10.352;2023-12-14T06:02:04;4.50;99.90
25170;DHT22;13129;48.012;10.352;2023-12-14T06:04:32;4.40;99.90
25170;DHT22;13129;48.012;10.352;2023-12-14T06:06:58;4.40;99.90
25170;DHT22;13129;48.012;10.352;2023-12-14T06:09:24;4.40;99.90
25170;DHT22;13129;48.012;10.352;2023-12-14T06:12:02;4.50;99.90
25170;DHT22;13129;48.012;10.352;2023-12-14T06:14:29;4.50;99.90
25170;DHT22;13129;48.012;10.352;2023-12-14T06:16:55;4.50;99.90
25170;DHT22;13129;48.012;10.352;2023-12-14T06:19:21;4.50;99.90
25170;DHT22;13129;48.012;10.352;2023-12-14T06:21:47;4.50;99.90
25170;DHT22;13129;48.012;10.352;2023-12-14T06:24:13;4.60;99.90
25170;DHT22;13129;48.012;10.352;2023-12-14T06:26:43;4.60;99.90
25170;DHT22;13129;48.012;10.352;2023-12-14T06:29:10;4.60;99.90
25170;DHT22;13129;48.012;10.352;2023-12-14T06:31:36;4.60;99.90
25170;DHT22;13129;48.012;10.352;2023-12-14T06:34:01;4.60;99.90
25170;DHT22;13129;48.012;10.352;2023-12-14T06:36:30;4.60;99.90
25170;DHT22;13129;48.012;10.352;2023-12-14T06:38:56;4.60;99.90
25170;DHT22;13129;48.012;10.352;2023-12-14T06:41:22;4.60;99.90
25170;DHT22;13129;48.012;10.352;2023-12-14T06:43:48;4.60;99.90
25170;DHT22;13129;48.012;10.352;2023-12-14T06:46:14;4.60;99.90
25170;DHT22;13129;48.012;10.352;2023-12-14T06:48:40;4.60;99.90
25170;DHT22;13129;48.012;10.352;2023-12-14T06:51:06;4.60;99.90
25170;DHT22;13129;48.012;10.352;2023-12-14T06:53:32;4.60;99.90
25170;DHT22;13129;48.012;10.352;2023-12-14T06:55:58;4.60;99.90
25170;DHT22;13129;48.012;10.352;2023-12-14T06:58:23;4.60;99.90
25170;DHT22;13129;48.012;10.352;2023-12-14T07:00:49;4.60;99.90
25170;DHT22;13129;48.012;10.352;2023-12-14T07:03:15;4.60;99.90
25170;DHT22;13129;48.012;10.352;2023-12-14T07:05:41;4.70;99.90
25170;DHT22;13129;48.012;10.352;2023-12-14T07:08:06;4.60;99.90
25170;DHT22;13129;48.012;10.352;2023-12-14T07:10:32;4.70;99.90
25170;DHT22;13129;48.012;10.352;2023-12-14T07:12:58;4.60;99.90
25170;DHT22;13129;48.012;10.352;2023-12-14T07:15:24;4.70;99.90
25170;DHT22;13129;48.012;10.352;2023-12-14T07:17:50;4.70;99.90
25170;DHT22;13129;48.012;10.352;2023-12-14T07:20:16;4.70;99.90
25170;DHT22;13129;48.012;10.352;2023-12-14T07:22:41;4.70;99.90
25170;DHT22;13129;48.012;10.352;2023-12-14T07:25:08;4.70;99.90
25170;DHT22;13129;48.012;10.352;2023-12-14T07:27:34;4.70;99.90
25170;DHT22;13129;48.012;10.352;2023-12-14T07:29:59;4.70;99.90
25170;DHT22;13129;48.012;10.352;2023-12-14T07:32:25;4.70;99.90
25170;DHT22;13129;48.012;10.352;2023-12-14T07:34:50;4.80;99.90
25170;DHT22;13129;48.012;10.352;2023-12-14T07:37:16;4.80;99.90
25170;DHT22;13129;48.012;10.352;2023-12-14T07:39:42;4.80;99.90
25170;DHT22;13129;48.012;10.352;2023-12-14T07:42:07;4.90;99.90
25170;DHT22;13129;48.012;10.352;2023-12-14T07:44:33;4.90;99.90
25170;DHT22;13129;48.012;10.352;2023-12-14T07:47:00;5.00;99.90
25170;DHT22;13129;48.012;10.352;2023-12-14T07:49:26;5.00;99.90
25170;DHT22;13129;48.012;10.352;2023-12-14T07:51:52;5.00;99.90
25170;DHT22;13129;48.012;10.352;2023-12-14T07:54:18;5.10;99.90
25170;DHT22;13129;48.012;10.352;2023-12-14T07:56:44;5.10;99.90
25170;DHT22;13129;48.012;10.352;2023-12-14T07:59:10;5.10;99.90
25170;DHT22;13129;48.012;10.352;2023-12-14T08:01:36;5.10;99.90
25170;DHT22;13129;48.012;10.352;2023-12-14T08:04:02;5.10;99.90
25170;DHT22;13129;48.012;10.352;2023-12-14T08:06:29;5.10;99.90
25170;DHT22;13129;48.012;10.352;2023-12-14T08:08:55;5.20;99.90
25170;DHT22;13129;48.012;10.352;2023-12-14T08:11:23;5.20;99.90
25170;DHT22;13129;48.012;10.352;2023-12-14T08:13:49;5.20;99.90
25170;DHT22;13129;48.012;10.352;2023-12-14T08:16:15;5.20;99.90
25170;DHT22;13129;48.012;10.352;2023-12-14T08:18:43;5.10;99.90
25170;DHT22;13129;48.012;10.352;2023-12-14T08:21:11;5.10;99.90
25170;DHT22;13129;48.012;10.352;2023-12-14T08:23:37;5.10;99.90
25170;DHT22;13129;48.012;10.352;2023-12-14T08:26:02;5.20;99.90
25170;DHT22;13129;48.012;10.352;2023-12-14T08:28:28;5.20;99.90
25170;DHT22;13129;48.012;10.352;2023-12-14T08:30:55;5.20;99.90
25170;DHT22;13129;48.012;10.352;2023-12-14T08:33:23;5.30;99.90
25170;DHT22;13129;48.012;10.352;2023-12-14T08:35:49;5.40;99.90
25170;DHT22;13129;48.012;10.352;2023-12-14T08:38:15;5.40;99.90
25170;DHT22;13129;48.012;10.352;2023-12-14T08:40:42;5.50;99.90
25170;DHT22;13129;48.012;10.352;2023-12-14T08:43:08;5.50;99.90
25170;DHT22;13129;48.012;10.352;2023-12-14T08:45:33;5.50;99.90
25170;DHT22;13129;48.012;10.352;2023-12-14T08:47:59;5.50;99.90
25170;DHT22;13129;48.012;10.352;2023-12-14T08:50:24;5.40;99.90
25170;DHT22;13129;48.012;10.352;2023-12-14T08:52:51;5.40;99.90
25170;DHT22;13129;48.012;10.352;2023-12-14T08:55:18;5.40;99.90
25170;DHT22;13129;48.012;10.352;2023-12-14T08:57:43;5.30;99.90
25170;DHT22;13129;48.012;10.352;2023-12-14T09:00:10;5.20;99.90
25170;DHT22;13129;48.012;10.352;2023-12-14T09:02:36;5.20;99.90
25170;DHT22;13129;48.012;10.352;2023-12-14T09:05:02;5.10;99.90
25170;DHT22;13129;48.012;10.352;2023-12-14T09:07:28;5.10;99.90
25170;DHT22;13129;48.012;10.352;2023-12-14T09:09:53;5.10;99.90
25170;DHT22;13129;48.012;10.352;2023-12-14T09:12:19;5.00;99.90
25170;DHT22;13129;48.012;10.352;2023-12-14T09:14:45;5.00;99.90
25170;DHT22;13129;48.012;10.352;2023-12-14T09:17:10;5.10;99.90
25170;DHT22;13129;48.012;10.352;2023-12-14T09:19:36;5.10;99.90
25170;DHT22;13129;48.012;10.352;2023-12-14T09:22:02;5.10;99.90
25170;DHT22;13129;48.012;10.352;2023-12-14T09:24:27;5.10;99.90
25170;DHT22;13129;48.012;10.352;2023-12-14T09:26:54;5.10;99.90
25170;DHT22;13129;48.012;10.352;2023-12-14T09:29:19;5.20;99.90
25170;DHT22;13129;48.012;10.352;2023-12-14T09:31:46;5.20;99.90
25170;DHT22;13129;48.012;10.352;2023-12-14T09:34:11;5.20;99.90
25170;DHT22;13129;48.012;10.352;2023-12-14T09:36:38;5.20;99.90
25170;DHT22;13129;48.012;10.352;2023-12-14T09:39:04;5.30;99.90
25170;DHT22;13129;48.012;10.352;2023-12-14T09:41:30;5.40;99.90
25170;DHT22;13129;48.012;10.352;2023-12-14T09:43:56;5.50;99.90
25170;DHT22;13129;48.012;10.352;2023-12-14T09:46:25;5.50;99.90
25170;DHT22;13129;48.012;10.352;2023-12-14T09:48:51;5.60;99.90
25170;DHT22;13129;48.012;10.352;2023-12-14T09:51:18;5.60;99.90
25170;DHT22;13129;48.012;10.352;2023-12-14T09:53:44;5.60;99.90
25170;DHT22;13129;48.012;10.352;2023-12-14T09:56:10;5.60;99.90
25170;DHT22;13129;48.012;10.352;2023-12-14T09:58:35;5.60;99.90
25170;DHT22;13129;48.012;10.352;2023-12-14T10:01:02;5.70;99.90
25170;DHT22;13129;48.012;10.352;2023-12-14T10:03:30;5.70;99.90
25170;DHT22;13129;48.012;10.352;2023-12-14T10:05:58;5.80;99.90
25170;DHT22;13129;48.012;10.352;2023-12-14T10:08:24;5.90;99.90
25170;DHT22;13129;48.012;10.352;2023-12-14T10:10:54;5.90;99.90
25170;DHT22;13129;48.012;10.352;2023-12-14T10:13:22;5.90;99.90
25170;DHT22;13129;48.012;10.352;2023-12-14T10:16:00;5.80;99.90
25170;DHT22;13129;48.012;10.352;2023-12-14T10:18:26;5.70;99.90
25170;DHT22;13129;48.012;10.352;2023-12-14T10:20:52;5.70;99.90
25170;DHT22;13129;48.012;10.352;2023-12-14T10:23:19;5.70;99.90
25170;DHT22;13129;48.012;10.352;2023-12-14T10:25:45;5.70;99.90
25170;DHT22;13129;48.012;10.352;2023-12-14T10:28:14;5.70;99.90
25170;DHT22;13129;48.012;10.352;2023-12-14T10:30:40;5.70;99.90
25170;DHT22;13129;48.012;10.352;2023-12-14T10:33:06;5.80;99.90
25170;DHT22;13129;48.012;10.352;2023-12-14T10:35:32;5.90;99.90
25170;DHT22;13129;48.012;10.352;2023-12-14T10:38:04;6.00;99.90
25170;DHT22;13129;48.012;10.352;2023-12-14T10:40:31;6.10;99.90
25170;DHT22;13129;48.012;10.352;2023-12-14T10:42:59;6.10;99.90
25170;DHT22;13129;48.012;10.352;2023-12-14T10:45:32;6.00;99.90
25170;DHT22;13129;48.012;10.352;2023-12-14T10:48:01;6.00;99.90
25170;DHT22;13129;48.012;10.352;2023-12-14T10:50:30;5.90;99.90
25170;DHT22;13129;48.012;10.352;2023-12-14T10:52:57;5.90;99.90
25170;DHT22;13129;48.012;10.352;2023-12-14T10:57:57;5.80;99.90
25170;DHT22;13129;48.012;10.352;2023-12-14T11:00:23;5.80;99.90
25170;DHT22;13129;48.012;10.352;2023-12-14T11:02:49;5.80;99.90
25170;DHT22;13129;48.012;10.352;2023-12-14T11:05:16;5.80;99.90
25170;DHT22;13129;48.012;10.352;2023-12-14T11:08:04;5.80;99.90
25170;DHT22;13129;48.012;10.352;2023-12-14T11:10:53;5.80;99.90
25170;DHT22;13129;48.012;10.352;2023-12-14T11:13:22;5.70;99.90
25170;DHT22;13129;48.012;10.352;2023-12-14T11:15:49;5.80;99.90
25170;DHT22;13129;48.012;10.352;2023-12-14T11:20:59;5.70;99.90
25170;DHT22;13129;48.012;10.352;2023-12-14T11:25:52;5.80;99.90
25170;DHT22;13129;48.012;10.352;2023-12-14T11:28:19;5.90;99.90
25170;DHT22;13129;48.012;10.352;2023-12-14T11:30:45;6.00;99.90
25170;DHT22;13129;48.012;10.352;2023-12-14T11:33:12;6.20;99.90
25170;DHT22;13129;48.012;10.352;2023-12-14T11:35:38;6.50;99.90
25170;DHT22;13129;48.012;10.352;2023-12-14T11:38:03;6.90;99.90
25170;DHT22;13129;48.012;10.352;2023-12-14T11:40:36;7.20;99.90
25170;DHT22;13129;48.012;10.352;2023-12-14T11:43:03;7.40;99.90
25170;DHT22;13129;48.012;10.352;2023-12-14T11:45:39;7.50;99.90
25170;DHT22;13129;48.012;10.352;2023-12-14T11:48:07;7.50;99.90
25170;DHT22;13129;48.012;10.352;2023-12-14T11:50:36;7.50;99.90
25170;DHT22;13129;48.012;10.352;2023-12-14T11:53:02;7.40;99.90
25170;DHT22;13129;48.012;10.352;2023-12-14T11:55:29;7.40;99.90
25170;DHT22;13129;48.012;10.352;2023-12-14T11:57:55;7.50;99.90
25170;DHT22;13129;48.012;10.352;2023-12-14T12:00:28;7.70;99.90
25170;DHT22;13129;48.012;10.352;2023-12-14T12:03:11;7.80;99.90
25170;DHT22;13129;48.012;10.352;2023-12-14T12:05:39;7.80;99.90
25170;DHT22;13129;48.012;10.352;2023-12-14T12:08:05;7.70;99.90
25170;DHT22;13129;48.012;10.352;2023-12-14T12:10:31;7.60;99.90
25170;DHT22;13129;48.012;10.352;2023-12-14T12:13:02;7.50;99.90
25170;DHT22;13129;48.012;10.352;2023-12-14T12:15:28;7.30;99.90
25170;DHT22;13129;48.012;10.352;2023-12-14T12:17:53;7.20;99.90
25170;DHT22;13129;48.012;10.352;2023-12-14T12:20:19;7.10;99.90
25170;DHT22;13129;48.012;10.352;2023-12-14T12:22:45;7.10;99.90
25170;DHT22;13129;48.012;10.352;2023-12-14T12:25:10;7.10;99.90
25170;DHT22;13129;48.012;10.352;2023-12-14T12:27:36;7.00;99.90
25170;DHT22;13129;48.012;10.352;2023-12-14T12:30:02;7.00;99.90
25170;DHT22;13129;48.012;10.352;2023-12-14T12:32:28;7.00;99.90
25170;DHT22;13129;48.012;10.352;2023-12-14T12:34:54;7.00;99.90
25170;DHT22;13129;48.012;10.352;2023-12-14T12:37:19;7.00;99.90
25170;DHT22;13129;48.012;10.352;2023-12-14T12:39:45;7.10;99.90
25170;DHT22;13129;48.012;10.352;2023-12-14T12:42:10;7.20;99.90
25170;DHT22;13129;48.012;10.352;2023-12-14T12:44:36;7.40;99.90
25170;DHT22;13129;48.012;10.352;2023-12-14T12:47:02;7.50;99.90
25170;DHT22;13129;48.012;10.352;2023-12-14T12:49:27;7.60;99.90
25170;DHT22;13129;48.012;10.352;2023-12-14T12:51:53;7.60;99.90
25170;DHT22;13129;48.012;10.352;2023-12-14T12:54:19;7.50;99.90
25170;DHT22;13129;48.012;10.352;2023-12-14T12:56:44;7.50;99.90
25170;DHT22;13129;48.012;10.352;2023-12-14T12:59:11;7.40;99.90
25170;DHT22;13129;48.012;10.352;2023-12-14T13:01:36;7.30;99.90
25170;DHT22;13129;48.012;10.352;2023-12-14T13:04:02;7.30;99.90
25170;DHT22;13129;48.012;10.352;2023-12-14T13:06:30;7.20;99.90
25170;DHT22;13129;48.012;10.352;2023-12-14T13:08:55;7.20;99.90
25170;DHT22;13129;48.012;10.352;2023-12-14T13:11:21;7.30;99.90
25170;DHT22;13129;48.012;10.352;2023-12-14T13:13:47;7.30;99.90
25170;DHT22;13129;48.012;10.352;2023-12-14T13:16:13;7.40;99.90
25170;DHT22;13129;48.012;10.352;2023-12-14T13:18:39;7.40;99.90
25170;DHT22;13129;48.012;10.352;2023-12-14T13:21:05;7.40;99.90
25170;DHT22;13129;48.012;10.352;2023-12-14T13:23:31;7.60;99.90
25170;DHT22;13129;48.012;10.352;2023-12-14T13:25:57;7.60;99.90
25170;DHT22;13129;48.012;10.352;2023-12-14T13:28:22;7.70;99.90
25170;DHT22;13129;48.012;10.352;2023-12-14T13:30:49;7.80;99.90
25170;DHT22;13129;48.012;10.352;2023-12-14T13:33:15;7.80;99.90
25170;DHT22;13129;48.012;10.352;2023-12-14T13:35:41;7.80;99.90
25170;DHT22;13129;48.012;10.352;2023-12-14T13:38:07;7.60;99.90
25170;DHT22;13129;48.012;10.352;2023-12-14T13:40:33;7.50;99.90
25170;DHT22;13129;48.012;10.352;2023-12-14T13:42:59;7.40;99.90
25170;DHT22;13129;48.012;10.352;2023-12-14T13:45:29;7.30;99.90
25170;DHT22;13129;48.012;10.352;2023-12-14T13:50:39;7.20;99.90
25170;DHT22;13129;48.012;10.352;2023-12-14T13:53:05;7.20;99.90
25170;DHT22;13129;48.012;10.352;2023-12-14T13:55:31;7.10;99.90
25170;DHT22;13129;48.012;10.352;2023-12-14T13:57:57;7.10;99.90
25170;DHT22;13129;48.012;10.352;2023-12-14T14:03:03;7.10;99.90
25170;DHT22;13129;48.012;10.352;2023-12-14T14:06:14;7.00;99.90
25170;DHT22;13129;48.012;10.352;2023-12-14T14:17:08;6.40;99.90
25170;DHT22;13129;48.012;10.352;2023-12-14T14:19:34;6.20;99.90
25170;DHT22;13129;48.012;10.352;2023-12-14T14:29:57;5.40;99.90
25170;DHT22;13129;48.012;10.352;2023-12-14T14:34:31;5.20;99.90
25170;DHT22;13129;48.012;10.352;2023-12-14T14:36:56;5.10;99.90
25170;DHT22;13129;48.012;10.352;2023-12-14T14:39:22;5.10;99.90
25170;DHT22;13129;48.012;10.352;2023-12-14T14:41:48;5.10;99.90
25170;DHT22;13129;48.012;10.352;2023-12-14T14:44:13;5.00;99.90
25170;DHT22;13129;48.012;10.352;2023-12-14T14:46:39;5.00;99.90
25170;DHT22;13129;48.012;10.352;2023-12-14T14:49:04;5.00;99.90
25170;DHT22;13129;48.012;10.352;2023-12-14T14:51:30;5.00;99.90
25170;DHT22;13129;48.012;10.352;2023-12-14T14:53:56;4.90;99.90
25170;DHT22;13129;48.012;10.352;2023-12-14T14:56:22;4.90;99.90
25170;DHT22;13129;48.012;10.352;2023-12-14T14:58:48;4.90;99.90
25170;DHT22;13129;48.012;10.352;2023-12-14T15:01:14;4.90;99.90
25170;DHT22;13129;48.012;10.352;2023-12-14T15:03:39;4.90;99.90
25170;DHT22;13129;48.012;10.352;2023-12-14T15:06:05;4.90;99.90
25170;DHT22;13129;48.012;10.352;2023-12-14T15:08:31;4.80;99.90
25170;DHT22;13129;48.012;10.352;2023-12-14T15:10:56;4.70;99.90
25170;DHT22;13129;48.012;10.352;2023-12-14T15:13:23;4.70;99.90
25170;DHT22;13129;48.012;10.352;2023-12-14T15:15:49;4.60;99.90
25170;DHT22;13129;48.012;10.352;2023-12-14T15:18:14;4.60;99.90
25170;DHT22;13129;48.012;10.352;2023-12-14T15:20:40;4.60;99.90
25170;DHT22;13129;48.012;10.352;2023-12-14T15:23:06;4.60;99.90
25170;DHT22;13129;48.012;10.352;2023-12-14T15:25:34;4.60;99.90
25170;DHT22;13129;48.012;10.352;2023-12-14T15:27:59;4.60;99.90
25170;DHT22;13129;48.012;10.352;2023-12-14T15:30:25;4.60;99.90
25170;DHT22;13129;48.012;10.352;2023-12-14T15:32:51;4.60;99.90
25170;DHT22;13129;48.012;10.352;2023-12-14T15:35:17;4.60;99.90
25170;DHT22;13129;48.012;10.352;2023-12-14T15:37:42;4.60;99.90
25170;DHT22;13129;48.012;10.352;2023-12-14T15:40:08;4.60;99.90
25170;DHT22;13129;48.012;10.352;2023-12-14T15:42:34;4.60;99.90
25170;DHT22;13129;48.012;10.352;2023-12-14T15:45:00;4.60;99.90
25170;DHT22;13129;48.012;10.352;2023-12-14T15:47:26;4.70;99.90
25170;DHT22;13129;48.012;10.352;2023-12-14T15:49:52;4.70;99.90
25170;DHT22;13129;48.012;10.352;2023-12-14T15:52:17;4.70;99.90
25170;DHT22;13129;48.012;10.352;2023-12-14T15:54:43;4.70;99.90
25170;DHT22;13129;48.012;10.352;2023-12-14T15:57:09;4.70;99.90
25170;DHT22;13129;48.012;10.352;2023-12-14T15:59:34;4.70;99.90
25170;DHT22;13129;48.012;10.352;2023-12-14T16:02:00;4.80;99.90
25170;DHT22;13129;48.012;10.352;2023-12-14T16:04:26;4.80;99.90
25170;DHT22;13129;48.012;10.352;2023-12-14T16:06:52;4.80;99.90
25170;DHT22;13129;48.012;10.352;2023-12-14T16:09:17;4.80;99.90
25170;DHT22;13129;48.012;10.352;2023-12-14T16:11:43;4.80;99.90
25170;DHT22;13129;48.012;10.352;2023-12-14T16:14:09;4.80;99.90
25170;DHT22;13129;48.012;10.352;2023-12-14T16:16:34;4.80;99.90
25170;DHT22;13129;48.012;10.352;2023-12-14T16:19:00;4.80;99.90
25170;DHT22;13129;48.012;10.352;2023-12-14T16:21:27;4.90;99.90
25170;DHT22;13129;48.012;10.352;2023-12-14T16:23:54;4.90;99.90
25170;DHT22;13129;48.012;10.352;2023-12-14T16:26:20;4.90;99.90
25170;DHT22;13129;48.012;10.352;2023-12-14T16:28:46;4.90;99.90
25170;DHT22;13129;48.012;10.352;2023-12-14T16:31:11;4.90;99.90
25170;DHT22;13129;48.012;10.352;2023-12-14T16:33:37;4.90;99.90
25170;DHT22;13129;48.012;10.352;2023-12-14T16:36:13;4.90;99.90
25170;DHT22;13129;48.012;10.352;2023-12-14T16:38:40;4.90;99.90
25170;DHT22;13129;48.012;10.352;2023-12-14T16:41:06;4.90;99.90
25170;DHT22;13129;48.012;10.352;2023-12-14T16:43:32;4.90;99.90
25170;DHT22;13129;48.012;10.352;2023-12-14T16:45:59;4.90;99.90
25170;DHT22;13129;48.012;10.352;2023-12-14T16:48:25;4.90;99.90
25170;DHT22;13129;48.012;10.352;2023-12-14T16:50:51;4.90;99.90
25170;DHT22;13129;48.012;10.352;2023-12-14T16:53:22;4.90;99.90
25170;DHT22;13129;48.012;10.352;2023-12-14T16:55:49;4.90;99.90
25170;DHT22;13129;48.012;10.352;2023-12-14T16:58:16;4.90;99.90
25170;DHT22;13129;48.012;10.352;2023-12-14T17:00:42;4.80;99.90
25170;DHT22;13129;48.012;10.352;2023-12-14T17:03:07;4.90;99.90
25170;DHT22;13129;48.012;10.352;2023-12-14T17:05:33;4.80;99.90
25170;DHT22;13129;48.012;10.352;2023-12-14T17:07:59;4.90;99.90
25170;DHT22;13129;48.012;10.352;2023-12-14T17:10:24;4.80;99.90
25170;DHT22;13129;48.012;10.352;2023-12-14T17:12:50;4.90;99.90
25170;DHT22;13129;48.012;10.352;2023-12-14T17:15:16;4.90;99.90
25170;DHT22;13129;48.012;10.352;2023-12-14T17:17:41;4.90;99.90
25170;DHT22;13129;48.012;10.352;2023-12-14T17:20:07;4.90;99.90
25170;DHT22;13129;48.012;10.352;2023-12-14T17:22:33;4.90;99.90
25170;DHT22;13129;48.012;10.352;2023-12-14T17:25:04;4.90;99.90
25170;DHT22;13129;48.012;10.352;2023-12-14T17:27:33;5.00;99.90
25170;DHT22;13129;48.012;10.352;2023-12-14T17:29:59;5.00;99.90
25170;DHT22;13129;48.012;10.352;2023-12-14T17:32:25;5.00;99.90
25170;DHT22;13129;48.012;10.352;2023-12-14T17:34:51;5.00;99.90
25170;DHT22;13129;48.012;10.352;2023-12-14T17:37:17;5.10;99.90
25170;DHT22;13129;48.012;10.352;2023-12-14T17:39:42;5.10;99.90
25170;DHT22;13129;48.012;10.352;2023-12-14T17:42:09;5.10;99.90
25170;DHT22;13129;48.012;10.352;2023-12-14T17:44:35;5.10;99.90
25170;DHT22;13129;48.012;10.352;2023-12-14T17:47:01;5.10;99.90
25170;DHT22;13129;48.012;10.352;2023-12-14T17:49:27;5.00;99.90
25170;DHT22;13129;48.012;10.352;2023-12-14T17:51:52;5.00;99.90
25170;DHT22;13129;48.012;10.352;2023-12-14T17:54:18;5.00;99.90
25170;DHT22;13129;48.012;10.352;2023-12-14T17:56:44;5.00;99.90
25170;DHT22;13129;48.012;10.352;2023-12-14T17:59:10;5.00;99.90
25170;DHT22;13129;48.012;10.352;2023-12-14T18:01:46;5.00;99.90
25170;DHT22;13129;48.012;10.352;2023-12-14T18:04:15;5.00;99.90
25170;DHT22;13129;48.012;10.352;2023-12-14T18:06:43;5.00;99.90
25170;DHT22;13129;48.012;10.352;2023-12-14T18:09:09;5.00;99.90
25170;DHT22;13129;48.012;10.352;2023-12-14T18:11:36;5.00;99.90
25170;DHT22;13129;48.012;10.352;2023-12-14T18:14:02;5.00;99.90
25170;DHT22;13129;48.012;10.352;2023-12-14T18:16:28;5.00;99.90
25170;DHT22;13129;48.012;10.352;2023-12-14T18:18:53;5.00;99.90
25170;DHT22;13129;48.012;10.352;2023-12-14T18:21:20;5.10;99.90
25170;DHT22;13129;48.012;10.352;2023-12-14T18:23:45;5.00;99.90
25170;DHT22;13129;48.012;10.352;2023-12-14T18:26:11;5.00;99.90
25170;DHT22;13129;48.012;10.352;2023-12-14T18:28:37;5.00;99.90
25170;DHT22;13129;48.012;10.352;2023-12-14T18:31:06;4.90;99.90
25170;DHT22;13129;48.012;10.352;2023-12-14T18:33:34;4.90;99.90
25170;DHT22;13129;48.012;10.352;2023-12-14T18:36:00;4.90;99.90
25170;DHT22;13129;48.012;10.352;2023-12-14T18:38:26;4.80;99.90
25170;DHT22;13129;48.012;10.352;2023-12-14T18:40:52;4.80;99.90
25170;DHT22;13129;48.012;10.352;2023-12-14T18:43:18;4.70;99.90
25170;DHT22;13129;48.012;10.352;2023-12-14T18:45:44;4.70;99.90
25170;DHT22;13129;48.012;10.352;2023-12-14T18:48:10;4.60;99.90
25170;DHT22;13129;48.012;10.352;2023-12-14T18:50:36;4.60;99.90
25170;DHT22;13129;48.012;10.352;2023-12-14T18:53:02;4.60;99.90
25170;DHT22;13129;48.012;10.352;2023-12-14T18:55:30;4.50;99.90
25170;DHT22;13129;48.012;10.352;2023-12-14T18:57:57;4.50;99.90
25170;DHT22;13129;48.012;10.352;2023-12-14T19:00:24;4.50;99.90
25170;DHT22;13129;48.012;10.352;2023-12-14T19:02:49;4.50;99.90
25170;DHT22;13129;48.012;10.352;2023-12-14T19:05:15;4.50;99.90
25170;DHT22;13129;48.012;10.352;2023-12-14T19:07:43;4.60;99.90
25170;DHT22;13129;48.012;10.352;2023-12-14T19:10:09;4.50;99.90
25170;DHT22;13129;48.012;10.352;2023-12-14T19:12:38;4.50;99.90
25170;DHT22;13129;48.012;10.352;2023-12-14T19:15:04;4.40;99.90
25170;DHT22;13129;48.012;10.352;2023-12-14T19:17:30;4.40;99.90
25170;DHT22;13129;48.012;10.352;2023-12-14T19:19:55;4.40;99.90
25170;DHT22;13129;48.012;10.352;2023-12-14T19:22:23;4.40;99.90
25170;DHT22;13129;48.012;10.352;2023-12-14T19:24:48;4.30;99.90
25170;DHT22;13129;48.012;10.352;2023-12-14T19:27:14;4.40;99.90
25170;DHT22;13129;48.012;10.352;2023-12-14T19:29:40;4.30;99.90
25170;DHT22;13129;48.012;10.352;2023-12-14T19:32:06;4.30;99.90
25170;DHT22;13129;48.012;10.352;2023-12-14T19:34:34;4.30;99.90
25170;DHT22;13129;48.012;10.352;2023-12-14T19:37:00;4.20;99.90
25170;DHT22;13129;48.012;10.352;2023-12-14T19:39:25;4.20;99.90
25170;DHT22;13129;48.012;10.352;2023-12-14T19:41:51;4.30;99.90
25170;DHT22;13129;48.012;10.352;2023-12-14T19:44:17;4.30;99.90
25170;DHT22;13129;48.012;10.352;2023-12-14T19:46:44;4.30;99.90
25170;DHT22;13129;48.012;10.352;2023-12-14T19:49:10;4.30;99.90
25170;DHT22;13129;48.012;10.352;2023-12-14T19:51:37;4.30;99.90
25170;DHT22;13129;48.012;10.352;2023-12-14T19:54:04;4.30;99.90
25170;DHT22;13129;48.012;10.352;2023-12-14T19:56:29;4.20;99.90
25170;DHT22;13129;48.012;10.352;2023-12-14T19:58:55;4.30;99.90
25170;DHT22;13129;48.012;10.352;2023-12-14T20:01:20;4.20;99.90
25170;DHT22;13129;48.012;10.352;2023-12-14T20:03:47;4.20;99.90
25170;DHT22;13129;48.012;10.352;2023-12-14T20:06:22;4.20;99.90
25170;DHT22;13129;48.012;10.352;2023-12-14T20:08:49;4.20;99.90
25170;DHT22;13129;48.012;10.352;2023-12-14T20:11:16;4.20;99.90
25170;DHT22;13129;48.012;10.352;2023-12-14T20:13:42;4.30;99.90
25170;DHT22;13129;48.012;10.352;2023-12-14T20:16:08;4.30;99.90
25170;DHT22;13129;48.012;10.352;2023-12-14T20:18:35;4.30;99.90
25170;DHT22;13129;48.012;10.352;2023-12-14T20:21:01;4.30;99.90
25170;DHT22;13129;48.012;10.352;2023-12-14T20:23:26;4.40;99.90
25170;DHT22;13129;48.012;10.352;2023-12-14T20:25:52;4.40;99.90
25170;DHT22;13129;48.012;10.352;2023-12-14T20:28:18;4.40;99.90